LEGR Airport Information

Runway Information
Runway 09 Length 9514 ft width 148 ft
Elevation 1842 ft Threshold 0 ft Heading 90
Runway 27 Length 9514 ft Width 148 ft
Elevation 1860 ft Threshold 0 ft Heading 270
Airport Frequencies
Type GND Name GND Frequency 121.7 MHZ
Type TWR Name TWR Frequency 118.85 MHZ
Airport Navaids
Type VOR-DME Name Granada Frequency 113400 KHZ
Airport Weather Information & NOTAM
ADDS - METARS form results

(2307 UTC 18 September 2021)
Data provider http://aviationweather.gov/metar/data/
 
METAR text: LEGR 182300Z AUTO 00000KT CAVOK 18/11 Q1018
Conditions at: LEGR (GRANADA AIRPORT , ES) observed 2300 UTC 18 September 2021
Temperature: 18.0°C (64°F)
Dewpoint: 11.0°C (52°F) [RH = 64%]
Pressure (altimeter): 30.06 inches Hg (1018.0 mb)
Winds: calm
Visibility: 6 or more miles (10+ km)
Ceiling: ceiling and visibility are OK
Clouds: unknown
Weather: no significant weather observed at this time

METAR text: LEGR 182230Z AUTO 00000KT CAVOK 18/11 Q1018
Conditions at: LEGR (GRANADA AIRPORT , ES) observed 2230 UTC 18 September 2021
Temperature: 18.0°C (64°F)
Dewpoint: 11.0°C (52°F) [RH = 64%]
Pressure (altimeter): 30.06 inches Hg (1018.0 mb)
Winds: calm
Visibility: 6 or more miles (10+ km)
Ceiling: ceiling and visibility are OK
Clouds: unknown
Weather: no significant weather observed at this time

Forecast for: LEGR (GRANADA AIRPORT , ES)
Text: TAF LEGR 181700Z 1818/1918 28010KT CAVOK TX31/1915Z TN15/1906Z
Forecast period: 1800 to 1900 UTC 18 September 2021
Forecast type: FROM: standard forecast or significant change
Winds: from the W (280 degrees) at 12 MPH (10 knots; 5.1 m/s)
Visibility: 6 or more miles (10+ km)
Ceiling: unknown
Clouds: missing
Weather: no significant weather forecast for this period
Text: BECMG 1819/1821 VRB02KT
Forecast period: 1900 UTC 18 September 2021 to 1200 UTC 19 September 2021
Forecast type: BECOMING: Conditions expected to become as follows by 2100 UTC 18 September 2021
Winds: variable direction winds at 2 MPH (2 knots; 1.0 m/s)
Visibility: 6 or more miles (10+ km)
Ceiling: unknown
Clouds: missing
Weather: no significant weather forecast for this period
Text: BECMG 1912/1914 26010KT
Forecast period: 1200 to 1800 UTC 19 September 2021
Forecast type: BECOMING: Conditions expected to become as follows by 1400 UTC 19 September 2021
Winds: from the W (260 degrees) at 12 MPH (10 knots; 5.1 m/s)
Visibility: 6 or more miles (10+ km)
Ceiling: unknown
Clouds: missing
Weather: no significant weather forecast for this period